createdAt,value
2017-05-20T00:00:10.518Z,12.99
2017-05-20T00:10:10.724Z,12.97
2017-05-20T00:20:10.602Z,13
2017-05-20T00:30:10.552Z,12.81
2017-05-20T00:40:10.550Z,12.7
2017-05-20T00:50:10.518Z,12.75
2017-05-20T01:00:10.529Z,12.59
2017-05-20T01:10:10.615Z,12.48
2017-05-20T01:20:10.586Z,12.46
2017-05-20T01:30:10.645Z,12.27
2017-05-20T01:40:10.535Z,12.23
2017-05-20T01:50:10.552Z,11.99
2017-05-20T02:00:10.615Z,11.7
2017-05-20T02:10:10.586Z,11.41
2017-05-20T02:20:10.549Z,11.34
2017-05-20T02:30:10.527Z,10.92
2017-05-20T02:40:10.524Z,10.68
2017-05-20T02:50:10.649Z,10.63
2017-05-20T03:00:10.631Z,10.56
2017-05-20T03:10:10.552Z,10.71
2017-05-20T03:20:10.576Z,10.4
2017-05-20T03:30:10.571Z,10.34
2017-05-20T03:40:10.503Z,10.4
2017-05-20T03:50:10.520Z,10.26
2017-05-20T04:00:10.561Z,10.36
2017-05-20T04:10:10.511Z,10.43
2017-05-20T04:20:10.597Z,10.58
2017-05-20T04:30:17.739Z,10.81
2017-05-20T04:40:19.093Z,10.95
2017-05-20T04:50:16.979Z,11.06
2017-05-20T05:00:16.663Z,11.28
2017-05-20T05:10:10.576Z,11.44
2017-05-20T05:20:10.618Z,11.52
2017-05-20T05:30:10.685Z,11.99
2017-05-20T05:40:10.608Z,12.26
2017-05-20T05:50:10.542Z,12.52
2017-05-20T06:00:10.602Z,13.62
2017-05-20T06:10:10.494Z,13.77
2017-05-20T06:20:10.568Z,14.21
2017-05-20T06:30:10.589Z,18.8
2017-05-20T06:40:10.533Z,19.86
2017-05-20T06:50:10.635Z,21.39
2017-05-20T07:00:10.610Z,22.72
2017-05-20T07:10:10.530Z,22.94
2017-05-20T07:20:10.522Z,21.53
2017-05-20T07:30:10.552Z,21.04
2017-05-20T07:40:10.608Z,21.3
2017-05-20T07:50:10.587Z,23.85
2017-05-20T08:00:10.571Z,23.72
2017-05-20T08:10:10.509Z,23.29
2017-05-20T08:20:10.526Z,26.4
2017-05-20T08:30:10.563Z,28.36
2017-05-20T08:40:10.529Z,24.87
2017-05-20T08:50:10.525Z,23.2
2017-05-20T09:00:10.543Z,21.35
2017-05-20T09:10:10.545Z,20.03
2017-05-20T09:20:10.535Z,19.33
2017-05-20T09:30:10.541Z,19.08
2017-05-20T09:40:10.598Z,19.32
2017-05-20T09:50:10.555Z,19.36
2017-05-20T10:00:10.558Z,18.52
2017-05-20T10:10:10.546Z,19.06
2017-05-20T10:20:10.564Z,19.14
2017-05-20T10:30:10.553Z,19.35
2017-05-20T10:40:10.542Z,20.08
2017-05-20T10:50:10.552Z,20.86
2017-05-20T11:00:10.553Z,20.43
2017-05-20T11:10:10.553Z,20.69
2017-05-20T11:20:10.574Z,19.43
2017-05-20T11:30:10.571Z,20.02
2017-05-20T11:40:10.552Z,19.39
2017-05-20T11:50:10.561Z,18.74
2017-05-20T12:00:10.564Z,19.75
2017-05-20T12:10:10.558Z,19.8
2017-05-20T12:20:10.574Z,20.03
2017-05-20T12:30:10.587Z,20.53
2017-05-20T12:40:10.563Z,20.76
2017-05-20T12:50:10.595Z,21.44
2017-05-20T13:00:10.570Z,20.62
2017-05-20T13:10:10.573Z,20.1
2017-05-20T13:20:10.560Z,20.41
2017-05-20T13:30:10.576Z,20.46
2017-05-20T13:40:10.598Z,20.05
2017-05-20T13:50:10.561Z,20.66
2017-05-20T14:00:10.562Z,20.46
2017-05-20T14:10:10.576Z,20.86
2017-05-20T14:20:10.611Z,20.25
2017-05-20T14:40:10.587Z,20.68
2017-05-20T14:50:10.611Z,19.84
2017-05-20T15:00:10.566Z,20.12
2017-05-20T15:10:10.601Z,20.24
2017-05-20T15:20:10.599Z,19.91
2017-05-20T15:30:10.601Z,19.79
2017-05-20T15:40:10.588Z,20.72
2017-05-20T15:50:10.845Z,20.51
2017-05-20T16:00:10.586Z,19.73
2017-05-20T16:10:10.585Z,19.57
2017-05-20T16:20:10.638Z,19.47
2017-05-20T16:30:10.596Z,19.95
2017-05-20T16:40:10.592Z,19.72
2017-05-20T16:50:10.580Z,19.91
2017-05-20T17:00:10.611Z,19.69
2017-05-20T17:10:10.605Z,19.55
2017-05-20T17:20:10.595Z,18.92
2017-05-20T17:30:10.620Z,18.46
2017-05-20T17:40:10.604Z,18.5
2017-05-20T17:50:10.597Z,18.74
2017-05-20T18:00:10.615Z,18.43
2017-05-20T18:10:10.615Z,17.88
2017-05-20T18:20:10.647Z,17.5
2017-05-20T18:30:10.613Z,17.18
2017-05-20T18:40:10.595Z,16.73
2017-05-20T18:50:10.597Z,16.12
2017-05-20T19:00:10.694Z,15.72
2017-05-20T19:10:10.608Z,15.26
2017-05-20T19:20:10.604Z,14.69
2017-05-20T19:30:10.624Z,14.19
2017-05-20T19:40:10.594Z,13.69
2017-05-20T19:50:10.602Z,13.33
2017-05-20T20:00:10.634Z,13.06
2017-05-20T20:10:10.623Z,12.66
2017-05-20T20:20:10.725Z,12.41
2017-05-20T20:30:10.595Z,12.21
2017-05-20T20:40:10.616Z,12.04
2017-05-20T20:50:10.579Z,11.85
2017-05-20T21:00:10.605Z,11.57
2017-05-20T21:10:10.598Z,11.19
2017-05-20T21:20:10.594Z,11.01
2017-05-20T21:30:10.626Z,10.8
2017-05-20T21:40:10.592Z,10.65
2017-05-20T21:50:10.609Z,10.63
2017-05-20T22:00:10.621Z,10.62
2017-05-20T22:10:10.596Z,10.51
2017-05-20T22:20:10.588Z,10.33
2017-05-20T22:30:10.605Z,10.42
2017-05-20T22:40:10.577Z,10.21
2017-05-20T22:50:10.576Z,10
2017-05-20T23:00:10.962Z,9.93
2017-05-20T23:10:10.610Z,9.78
2017-05-20T23:20:10.585Z,9.83
2017-05-20T23:30:10.580Z,9.88
2017-05-20T23:40:10.562Z,9.71
2017-05-20T23:50:10.648Z,9.63
